createdAt,value
2022-08-28T00:00:31.092Z,15.27
2022-08-28T00:02:59.861Z,12.93
2022-08-28T00:05:31.394Z,12.77
2022-08-28T00:08:02.237Z,13.25
2022-08-28T00:10:32.413Z,14.48
2022-08-28T00:13:00.945Z,11.82
2022-08-28T00:15:33.844Z,15.52
2022-08-28T00:18:03.934Z,11.85
2022-08-28T00:20:34.364Z,12.27
2022-08-28T00:23:03.200Z,13.52
2022-08-28T00:25:33.882Z,14.00
2022-08-28T00:28:08.719Z,11.48
2022-08-28T00:30:40.364Z,14.32
2022-08-28T00:33:13.824Z,13.48
2022-08-28T00:35:43.429Z,14.95
2022-08-28T00:38:15.079Z,10.98
2022-08-28T00:40:46.346Z,13.95
2022-08-28T00:43:28.170Z,14.05
2022-08-28T00:45:56.394Z,11.38
2022-08-28T00:48:24.632Z,13.02
2022-08-28T00:51:10.600Z,13.05
2022-08-28T00:53:39.085Z,13.65
2022-08-28T00:56:13.554Z,12.65
2022-08-28T00:58:45.234Z,15.57
2022-08-28T01:01:15.070Z,14.57
2022-08-28T01:03:44.408Z,14.15
2022-08-28T01:06:14.827Z,13.35
2022-08-28T01:08:50.365Z,15.02
2022-08-28T01:11:22.096Z,13.02
2022-08-28T01:13:51.215Z,13.40
2022-08-28T01:16:23.039Z,12.98
2022-08-28T01:18:57.460Z,18.75
2022-08-28T01:21:30.968Z,12.52
2022-08-28T01:24:07.179Z,12.68
2022-08-28T01:26:35.484Z,12.18
2022-08-28T01:29:04.045Z,14.25
2022-08-28T01:31:33.455Z,12.35
2022-08-28T01:34:01.929Z,15.07
2022-08-28T01:36:31.304Z,11.75
2022-08-28T01:39:07.789Z,10.30
2022-08-28T01:41:40.026Z,13.00
2022-08-28T01:44:08.579Z,10.75
2022-08-28T01:46:37.273Z,12.95
2022-08-28T01:49:07.436Z,14.40
2022-08-28T01:51:38.047Z,13.95
2022-08-28T01:54:08.607Z,12.45
2022-08-28T01:56:38.391Z,14.68
2022-08-28T01:59:10.997Z,14.50
2022-08-28T02:01:40.131Z,14.35
2022-08-28T02:04:08.596Z,14.15
2022-08-28T02:06:37.963Z,13.10
2022-08-28T02:09:11.602Z,14.40
2022-08-28T02:11:44.358Z,17.77
2022-08-28T02:14:16.055Z,15.20
2022-08-28T02:16:44.336Z,14.00
2022-08-28T02:19:13.184Z,12.82
2022-08-28T02:21:42.127Z,12.25
2022-08-28T02:24:11.830Z,14.35
2022-08-28T02:26:40.396Z,12.90
2022-08-28T02:29:08.652Z,11.88
2022-08-28T02:31:37.754Z,12.35
2022-08-28T02:34:06.926Z,15.70
2022-08-28T02:36:35.281Z,12.43
2022-08-28T02:39:03.565Z,13.20
2022-08-28T02:41:33.378Z,14.25
2022-08-28T02:44:01.736Z,15.10
2022-08-28T02:46:30.144Z,14.55
2022-08-28T02:48:58.402Z,12.60
2022-08-28T02:51:27.423Z,11.25
2022-08-28T02:53:55.630Z,17.27
2022-08-28T02:56:24.632Z,14.35
2022-08-28T02:58:54.356Z,14.95
2022-08-28T03:01:25.231Z,13.25
2022-08-28T03:03:54.324Z,12.85
2022-08-28T03:06:23.094Z,11.68
2022-08-28T03:08:52.974Z,17.13
2022-08-28T03:11:21.184Z,12.45
2022-08-28T03:13:49.459Z,12.60
2022-08-28T03:16:19.623Z,14.88
2022-08-28T03:18:47.853Z,15.90
2022-08-28T03:21:16.053Z,13.98
2022-08-28T03:23:44.335Z,11.63
2022-08-28T03:26:17.250Z,12.57
2022-08-28T03:28:52.742Z,13.80
2022-08-28T03:31:25.356Z,12.82
2022-08-28T03:33:54.580Z,14.85
2022-08-28T03:36:25.507Z,13.18
2022-08-28T03:38:56.873Z,12.65
2022-08-28T03:41:29.114Z,11.82
2022-08-28T03:43:58.251Z,13.40
2022-08-28T03:46:29.660Z,13.15
2022-08-28T03:48:57.855Z,11.18
2022-08-28T03:51:29.419Z,15.63
2022-08-28T03:53:59.285Z,13.27
2022-08-28T03:56:29.874Z,14.27
2022-08-28T03:59:01.594Z,13.70
2022-08-28T04:01:33.125Z,13.50
2022-08-28T04:04:02.076Z,13.70
2022-08-28T04:06:30.300Z,11.35
2022-08-28T04:09:00.034Z,14.90
2022-08-28T04:11:28.910Z,14.45
2022-08-28T04:13:57.916Z,14.48
2022-08-28T04:16:26.238Z,15.43
2022-08-28T04:18:55.808Z,15.18
2022-08-28T04:21:26.117Z,12.65
2022-08-28T04:23:55.319Z,19.75
2022-08-28T04:26:27.695Z,13.73
2022-08-28T04:28:56.718Z,15.07
2022-08-28T04:31:32.208Z,12.85
2022-08-28T04:34:05.937Z,14.93
2022-08-28T04:36:34.618Z,16.20
2022-08-28T04:39:05.438Z,16.13
2022-08-28T04:41:34.308Z,13.27
2022-08-28T04:44:02.558Z,13.55
2022-08-28T04:46:31.197Z,14.27
2022-08-28T04:49:00.435Z,14.63
2022-08-28T04:51:30.300Z,17.45
2022-08-28T04:53:59.329Z,13.95
2022-08-28T04:56:28.215Z,15.38
2022-08-28T04:58:56.528Z,11.02
2022-08-28T05:01:26.270Z,15.32
2022-08-28T05:03:57.883Z,11.32
2022-08-28T05:06:28.194Z,12.00
2022-08-28T05:09:00.147Z,11.57
2022-08-28T05:11:34.004Z,13.73
2022-08-28T05:14:04.868Z,14.25
2022-08-28T05:16:34.509Z,12.30
2022-08-28T05:19:03.456Z,13.35
2022-08-28T05:21:31.754Z,12.95
2022-08-28T05:24:01.426Z,12.80
2022-08-28T05:26:30.265Z,14.02
2022-08-28T05:29:02.001Z,12.98
2022-08-28T05:31:33.070Z,14.48
2022-08-28T05:34:02.715Z,14.52
2022-08-28T05:36:36.815Z,13.20
2022-08-28T05:39:11.062Z,12.77
2022-08-28T05:41:41.367Z,14.00
2022-08-28T05:44:15.686Z,15.90
2022-08-28T05:46:47.763Z,17.08
2022-08-28T05:49:19.220Z,13.70
2022-08-28T05:51:48.066Z,15.95
2022-08-28T05:54:18.168Z,12.90
2022-08-28T05:56:47.157Z,11.20
2022-08-28T05:59:17.328Z,15.73
2022-08-28T06:01:50.783Z,15.27
2022-08-28T06:04:47.490Z,13.55
2022-08-28T06:07:35.923Z,12.20
2022-08-28T06:10:20.781Z,15.55
2022-08-28T06:12:49.025Z,14.20
2022-08-28T06:15:17.798Z,15.00
2022-08-28T06:17:46.635Z,14.15
2022-08-28T06:20:15.022Z,16.48
2022-08-28T06:22:44.555Z,15.02
2022-08-28T06:25:14.294Z,13.93
2022-08-28T06:27:44.142Z,14.52
2022-08-28T06:30:13.353Z,17.75
2022-08-28T06:32:41.816Z,15.65
2022-08-28T06:35:10.411Z,12.65
2022-08-28T06:37:43.427Z,14.40
2022-08-28T06:40:22.487Z,19.08
2022-08-28T06:42:52.273Z,19.38
2022-08-28T06:45:23.499Z,15.70
2022-08-28T06:47:54.869Z,13.68
2022-08-28T07:02:51.141Z,14.70
2022-08-28T07:06:02.292Z,11.25
2022-08-28T07:08:56.061Z,11.32
2022-08-28T07:15:56.052Z,10.13
2022-08-28T07:22:01.685Z,11.82
2022-08-28T07:25:07.591Z,10.98
2022-08-28T07:28:03.242Z,11.65
2022-08-28T07:30:38.558Z,8.05
2022-08-28T07:35:56.571Z,11.45
2022-08-28T07:38:34.141Z,8.20
2022-08-28T07:44:07.083Z,6.75
2022-08-28T07:46:40.655Z,10.13
2022-08-28T07:49:12.541Z,12.68
2022-08-28T07:51:46.996Z,8.60
2022-08-28T07:54:18.051Z,8.75
2022-08-28T07:56:46.774Z,7.28
2022-08-28T07:59:17.440Z,10.27
2022-08-28T08:01:51.936Z,6.80
2022-08-28T08:04:21.890Z,6.93
2022-08-28T08:06:57.588Z,7.53
2022-08-28T08:09:27.452Z,8.57
2022-08-28T08:11:57.628Z,8.77
2022-08-28T08:14:32.428Z,9.82
2022-08-28T08:17:07.459Z,9.45
2022-08-28T08:19:36.239Z,8.25
2022-08-28T08:22:04.544Z,10.63
2022-08-28T08:24:32.828Z,6.93
2022-08-28T08:27:03.180Z,9.85
2022-08-28T08:29:35.611Z,10.13
2022-08-28T08:32:08.576Z,8.25
2022-08-28T08:34:39.938Z,8.18
2022-08-28T08:37:08.748Z,7.55
2022-08-28T08:39:39.490Z,9.60
2022-08-28T08:42:15.873Z,7.93
2022-08-28T08:44:46.998Z,6.63
2022-08-28T08:47:23.115Z,6.13
2022-08-28T08:49:56.321Z,7.57
2022-08-28T08:52:37.901Z,8.38
2022-08-28T08:55:18.572Z,9.32
2022-08-28T08:57:49.747Z,9.70
2022-08-28T09:00:19.498Z,8.05
2022-08-28T09:02:57.868Z,6.70
2022-08-28T09:05:45.679Z,7.13
2022-08-28T09:08:33.594Z,4.63
2022-08-28T09:11:24.722Z,6.50
2022-08-28T09:14:00.621Z,6.47
2022-08-28T09:16:33.265Z,8.27
2022-08-28T09:19:03.986Z,5.88
2022-08-28T09:21:35.272Z,5.97
2022-08-28T09:24:10.942Z,5.68
2022-08-28T09:26:41.383Z,6.18
2022-08-28T09:29:18.841Z,7.50
2022-08-28T09:31:47.076Z,8.10
2022-08-28T09:34:28.560Z,9.23
2022-08-28T09:36:59.640Z,5.75
2022-08-28T09:39:30.807Z,6.13
2022-08-28T09:42:25.125Z,7.45
2022-08-28T09:45:02.737Z,7.40
2022-08-28T09:47:49.687Z,6.18
2022-08-28T09:50:32.282Z,7.68
2022-08-28T09:53:18.885Z,6.95
2022-08-28T09:55:58.203Z,5.57
2022-08-28T09:58:35.346Z,5.65
2022-08-28T10:01:33.402Z,6.78
2022-08-28T10:04:16.887Z,7.10
2022-08-28T10:06:53.987Z,6.30
2022-08-28T10:09:30.454Z,8.05
2022-08-28T10:12:07.901Z,6.13
2022-08-28T10:14:51.617Z,5.78
2022-08-28T10:17:31.606Z,7.80
2022-08-28T10:20:09.708Z,6.90
2022-08-28T10:22:51.097Z,5.38
2022-08-28T10:25:28.971Z,5.13
2022-08-28T10:28:18.752Z,6.22
2022-08-28T10:31:01.824Z,4.53
2022-08-28T10:33:57.556Z,6.78
2022-08-28T10:36:34.701Z,6.68
2022-08-28T10:39:17.965Z,5.30
2022-08-28T10:41:50.579Z,6.72
2022-08-28T10:44:26.064Z,6.35
2022-08-28T10:46:58.623Z,14.20
2022-08-28T10:49:33.239Z,8.38
2022-08-28T10:52:07.769Z,4.60
2022-08-28T10:54:49.455Z,5.40
2022-08-28T10:57:40.151Z,4.22
2022-08-28T11:00:15.079Z,4.63
2022-08-28T11:02:59.287Z,7.78
2022-08-28T11:05:37.768Z,5.82
2022-08-28T11:08:20.847Z,3.45
2022-08-28T11:10:56.454Z,7.95
2022-08-28T11:13:48.310Z,4.38
2022-08-28T11:16:23.736Z,6.35
2022-08-28T11:19:44.197Z,4.13
2022-08-28T11:22:20.704Z,4.18
2022-08-28T11:25:04.319Z,6.35
2022-08-28T11:27:48.272Z,4.47
2022-08-28T11:30:36.308Z,5.38
2022-08-28T11:33:37.093Z,7.43
2022-08-28T11:36:13.088Z,5.93
2022-08-28T11:39:06.305Z,5.25
2022-08-28T11:42:06.567Z,6.18
2022-08-28T11:44:47.298Z,6.25
2022-08-28T11:47:38.903Z,4.20
2022-08-28T11:50:18.677Z,4.85
2022-08-28T11:53:39.621Z,4.68
2022-08-28T11:56:37.841Z,7.43
2022-08-28T11:59:35.015Z,6.05
2022-08-28T12:02:52.255Z,5.35
2022-08-28T12:05:45.529Z,4.60
2022-08-28T12:08:55.013Z,6.22
2022-08-28T12:11:57.952Z,4.20
2022-08-28T12:15:10.883Z,4.60
2022-08-28T12:17:53.632Z,6.60
2022-08-28T12:21:00.024Z,3.90
2022-08-28T12:23:45.485Z,6.05
2022-08-28T12:26:27.384Z,3.65
2022-08-28T12:28:58.897Z,4.30
2022-08-28T12:32:14.600Z,6.85
2022-08-28T12:34:54.001Z,5.32
2022-08-28T12:37:52.118Z,4.18
2022-08-28T12:40:24.885Z,4.90
2022-08-28T12:42:56.416Z,4.85
2022-08-28T12:45:29.465Z,4.90
2022-08-28T12:48:01.502Z,4.18
2022-08-28T12:50:35.999Z,6.45
2022-08-28T12:53:08.164Z,4.38
2022-08-28T12:55:39.008Z,3.65
2022-08-28T12:58:14.969Z,4.63
2022-08-28T13:00:55.976Z,3.42
2022-08-28T13:03:24.317Z,4.95
2022-08-28T13:06:03.514Z,5.85
2022-08-28T13:08:33.267Z,3.53
2022-08-28T13:11:02.148Z,5.63
2022-08-28T13:13:39.972Z,5.70
2022-08-28T13:16:10.441Z,5.35
2022-08-28T13:18:49.904Z,4.85
2022-08-28T13:21:35.363Z,3.70
2022-08-28T13:24:27.859Z,4.43
2022-08-28T13:27:07.732Z,5.20
2022-08-28T13:29:37.514Z,4.60
2022-08-28T13:32:10.751Z,4.90
2022-08-28T13:34:46.056Z,5.38
2022-08-28T13:37:44.558Z,3.83
2022-08-28T13:40:38.197Z,6.53
2022-08-28T13:43:07.618Z,4.50
2022-08-28T13:45:43.796Z,4.72
2022-08-28T13:48:14.041Z,4.38
2022-08-28T13:50:46.944Z,4.75
2022-08-28T13:53:19.883Z,5.07
2022-08-28T13:55:51.095Z,3.50
2022-08-28T13:58:19.503Z,4.13
2022-08-28T14:00:50.417Z,3.85
2022-08-28T14:03:36.373Z,5.53
2022-08-28T14:06:09.245Z,3.58
2022-08-28T14:08:39.799Z,4.07
2022-08-28T14:11:08.840Z,4.35
2022-08-28T14:13:47.434Z,5.65
2022-08-28T14:16:24.247Z,4.78
2022-08-28T14:18:53.851Z,4.38
2022-08-28T14:21:22.223Z,5.72
2022-08-28T14:23:51.741Z,4.03
2022-08-28T14:26:20.248Z,3.60
2022-08-28T14:28:48.636Z,6.15
2022-08-28T14:31:16.955Z,3.55
2022-08-28T14:33:46.082Z,3.70
2022-08-28T14:36:17.630Z,3.90
2022-08-28T14:38:45.924Z,4.63
2022-08-28T14:41:17.412Z,4.00
2022-08-28T14:43:46.404Z,3.67
2022-08-28T14:46:17.636Z,3.70
2022-08-28T14:48:46.094Z,4.47
2022-08-28T14:51:15.190Z,5.57
2022-08-28T14:53:43.394Z,5.05
2022-08-28T14:56:12.147Z,3.38
2022-08-28T14:58:42.517Z,4.60
2022-08-28T15:01:10.841Z,3.83
2022-08-28T15:03:39.182Z,5.43
2022-08-28T15:06:10.654Z,3.92
2022-08-28T15:08:39.759Z,3.85
2022-08-28T15:11:09.577Z,3.22
2022-08-28T15:13:37.893Z,3.78
2022-08-28T15:16:15.629Z,3.40
2022-08-28T15:18:45.866Z,5.03
2022-08-28T15:21:18.741Z,4.35
2022-08-28T15:23:47.426Z,4.13
2022-08-28T15:26:16.082Z,3.78
2022-08-28T15:28:44.523Z,5.47
2022-08-28T15:31:14.725Z,7.20
2022-08-28T15:33:45.326Z,4.90
2022-08-28T15:36:14.168Z,3.63
2022-08-28T15:38:59.845Z,4.38
2022-08-28T15:41:29.396Z,4.30
2022-08-28T15:44:01.274Z,4.45
2022-08-28T15:46:34.332Z,3.38
2022-08-28T15:49:03.844Z,5.55
2022-08-28T15:51:36.520Z,4.15
2022-08-28T15:54:06.546Z,3.85
2022-08-28T15:56:35.062Z,5.43
2022-08-28T15:59:03.383Z,4.03
2022-08-28T16:01:33.021Z,3.95
2022-08-28T16:04:01.336Z,4.15
2022-08-28T16:06:33.647Z,3.33
2022-08-28T16:09:02.730Z,4.30
2022-08-28T16:11:33.834Z,7.20
2022-08-28T16:14:04.505Z,4.88
2022-08-28T16:16:35.634Z,5.38
2022-08-28T16:19:04.647Z,4.70
2022-08-28T16:21:33.075Z,5.13
2022-08-28T16:24:01.599Z,4.63
2022-08-28T16:26:29.915Z,4.05
2022-08-28T16:28:58.367Z,4.25
2022-08-28T16:31:27.276Z,4.75
2022-08-28T16:33:57.120Z,5.53
2022-08-28T16:36:26.438Z,4.78
2022-08-28T16:39:03.820Z,4.65
2022-08-28T16:41:33.152Z,3.92
2022-08-28T16:44:01.465Z,4.22
2022-08-28T16:46:30.845Z,4.72
2022-08-28T16:49:06.230Z,4.93
2022-08-28T16:51:38.234Z,4.15
2022-08-28T16:54:10.612Z,3.28
2022-08-28T16:56:51.507Z,5.22
2022-08-28T16:59:23.472Z,4.30
2022-08-28T17:01:57.014Z,5.55
2022-08-28T17:04:28.955Z,5.50
2022-08-28T17:06:57.572Z,3.95
2022-08-28T17:09:26.233Z,4.32
2022-08-28T17:11:54.889Z,4.55
2022-08-28T17:14:24.129Z,6.55
2022-08-28T17:16:54.437Z,5.68
2022-08-28T17:19:25.113Z,4.35
2022-08-28T17:22:15.053Z,4.43
2022-08-28T17:24:44.330Z,5.03
2022-08-28T17:27:22.458Z,3.95
2022-08-28T17:48:01.236Z,4.13
2022-08-28T17:50:32.259Z,3.53
2022-08-28T17:53:06.831Z,3.95
2022-08-28T17:55:50.427Z,3.70
2022-08-28T17:58:22.403Z,4.38
2022-08-28T18:01:08.978Z,6.15
2022-08-28T18:04:16.221Z,4.40
2022-08-28T18:15:12.985Z,5.80
2022-08-28T18:18:00.773Z,3.85
2022-08-28T18:20:30.452Z,4.22
2022-08-28T18:22:58.691Z,5.10
2022-08-28T18:25:50.581Z,4.03
2022-08-28T18:28:22.620Z,4.68
2022-08-28T18:30:52.792Z,7.65
2022-08-28T18:33:24.778Z,6.32
2022-08-28T18:35:55.723Z,11.07
2022-08-28T18:38:28.111Z,4.78
2022-08-28T18:40:59.910Z,5.32
2022-08-28T18:43:28.199Z,4.43
2022-08-28T18:49:19.320Z,9.73
2022-08-28T18:55:41.423Z,6.32
2022-08-28T18:58:10.394Z,4.88
2022-08-28T19:00:53.119Z,4.68
2022-08-28T19:03:23.704Z,5.28
2022-08-28T19:05:52.271Z,4.68
2022-08-28T19:08:21.504Z,5.40
2022-08-28T19:10:54.438Z,5.40
2022-08-28T19:13:23.283Z,4.72
2022-08-28T19:15:53.591Z,5.35
2022-08-28T19:18:22.064Z,6.78
2022-08-28T19:20:51.712Z,6.07
2022-08-28T19:23:20.177Z,7.88
2022-08-28T19:25:53.915Z,6.55
2022-08-28T19:28:24.925Z,6.50
2022-08-28T19:30:53.228Z,6.78
2022-08-28T19:33:24.032Z,5.47
2022-08-28T19:35:52.546Z,5.95
2022-08-28T19:38:20.710Z,6.22
2022-08-28T19:40:49.022Z,8.55
2022-08-28T19:43:18.795Z,6.47
2022-08-28T19:45:47.242Z,6.05
2022-08-28T19:48:15.770Z,5.72
2022-08-28T19:50:44.087Z,6.53
2022-08-28T19:53:13.302Z,8.15
2022-08-28T19:55:41.485Z,5.90
2022-08-28T19:58:12.852Z,5.20
2022-08-28T20:00:43.902Z,5.63
2022-08-28T20:03:12.162Z,6.60
2022-08-28T20:05:42.167Z,6.10
2022-08-28T20:08:14.804Z,6.03
2022-08-28T20:10:44.024Z,5.72
2022-08-28T20:13:12.915Z,6.57
2022-08-28T20:15:49.074Z,6.13
2022-08-28T20:18:18.471Z,6.18
2022-08-28T20:20:48.179Z,6.68
2022-08-28T20:23:18.059Z,5.95
2022-08-28T20:25:48.655Z,5.40
2022-08-28T20:28:18.447Z,6.72
2022-08-28T20:30:50.847Z,6.53
2022-08-28T20:33:19.414Z,7.72
2022-08-28T20:35:47.991Z,7.60
2022-08-28T20:38:16.266Z,5.82
2022-08-28T20:40:45.521Z,7.05
2022-08-28T20:43:13.827Z,5.68
2022-08-28T20:45:42.033Z,8.85
2022-08-28T20:48:11.660Z,5.00
2022-08-28T20:50:40.434Z,7.35
2022-08-28T20:53:08.810Z,6.28
2022-08-28T20:55:37.084Z,7.93
2022-08-28T20:58:05.460Z,7.15
2022-08-28T21:00:33.997Z,8.15
2022-08-28T21:03:02.528Z,7.43
2022-08-28T21:05:32.336Z,5.55
2022-08-28T21:08:00.938Z,9.23
2022-08-28T21:10:29.473Z,6.13
2022-08-28T21:12:57.746Z,8.18
2022-08-28T21:15:26.456Z,7.43
2022-08-28T21:17:54.984Z,6.35
2022-08-28T21:20:25.606Z,5.65
2022-08-28T21:22:58.291Z,5.88
2022-08-28T21:25:36.436Z,7.40
2022-08-28T21:28:08.129Z,6.47
2022-08-28T21:30:38.065Z,7.10
2022-08-28T21:33:14.189Z,5.35
2022-08-28T21:35:42.906Z,5.18
2022-08-28T21:38:12.767Z,7.35
2022-08-28T21:40:41.802Z,7.70
2022-08-28T21:43:10.101Z,6.90
2022-08-28T21:45:38.443Z,8.13
2022-08-28T21:48:08.012Z,7.22
2022-08-28T21:50:36.313Z,9.05
2022-08-28T21:53:05.213Z,7.32
2022-08-28T21:55:34.816Z,7.03
2022-08-28T21:58:03.176Z,8.02
2022-08-28T22:00:31.465Z,6.70
2022-08-28T22:03:00.091Z,6.70
2022-08-28T22:05:28.707Z,7.80
2022-08-28T22:07:56.878Z,6.13
2022-08-28T22:10:26.208Z,7.60
2022-08-28T22:12:56.476Z,6.95
2022-08-28T22:15:24.752Z,6.45
2022-08-28T22:17:52.996Z,8.77
2022-08-28T22:20:21.450Z,8.00
2022-08-28T22:23:07.261Z,7.35
2022-08-28T22:25:41.053Z,6.93
2022-08-28T22:28:11.768Z,7.40
2022-08-28T22:30:42.851Z,6.68
2022-08-28T22:33:11.838Z,8.20
2022-08-28T22:35:40.625Z,6.82
2022-08-28T22:38:08.831Z,5.68
2022-08-28T22:40:37.045Z,8.68
2022-08-28T22:43:05.342Z,5.55
2022-08-28T22:45:35.080Z,7.75
2022-08-28T22:48:03.637Z,6.38
2022-08-28T22:50:31.933Z,5.75
2022-08-28T22:53:00.203Z,8.00
2022-08-28T22:55:28.680Z,7.13
2022-08-28T22:57:56.943Z,5.93
2022-08-28T23:00:27.987Z,7.07
2022-08-28T23:02:59.761Z,5.40
2022-08-28T23:05:30.153Z,7.78
2022-08-28T23:07:58.917Z,7.55
2022-08-28T23:10:48.224Z,6.82
2022-08-28T23:13:16.384Z,7.13
2022-08-28T23:15:45.275Z,6.82
2022-08-28T23:18:15.296Z,7.68
2022-08-28T23:20:45.390Z,7.57
2022-08-28T23:23:14.090Z,7.40
2022-08-28T23:25:42.800Z,5.93
2022-08-28T23:28:11.059Z,7.35
2022-08-28T23:30:44.090Z,6.07
2022-08-28T23:33:23.654Z,4.75
2022-08-28T23:35:52.894Z,8.15
2022-08-28T23:38:22.394Z,8.32
2022-08-28T23:40:51.328Z,8.18
2022-08-28T23:43:20.106Z,7.85
2022-08-28T23:45:48.869Z,7.18
2022-08-28T23:48:18.663Z,8.75
2022-08-28T23:50:47.133Z,7.47
2022-08-28T23:53:16.608Z,9.07
2022-08-28T23:55:45.821Z,8.02
2022-08-28T23:58:17.399Z,6.65
